Time;durP1;ratioP1;P1;durP2;ratioP2;P2;SDS_P1;SDS_P2;PMS_P1;PMS_P2;Temp;Humidity;BMP_temperature;BMP_pressure;BME280_temperature;BME280_humidity;BME280_pressure;Samples;Min_cycle;Max_cycle;Signal;HPM_P1;HPM_P2
2022/02/21 00:02:33;;;;;;;;;;;11.60;99.90;;;;;;4981854;28;19994;-93
2022/02/21 00:05:19;;;;;;;;;;;11.60;99.90;;;;;;4965823;28;20109;-93
2022/02/21 00:07:45;;;;;;;;;;;11.60;99.90;;;;;;4961821;28;19907;-92
2022/02/21 00:11:02;;;;;;;;;;;11.60;99.90;;;;;;4965351;28;19918;-95
2022/02/21 00:13:47;;;;;;;;;;;;;;;;;;;;;
2022/02/21 00:16:33;;;;;;;;;;;11.70;99.90;;;;;;4970224;28;19945;-95
2022/02/21 00:18:59;;;;;;;;;;;11.70;99.90;;;;;;4963992;28;19973;-93
2022/02/21 00:21:25;;;;;;;;;;;11.70;99.90;;;;;;4965782;28;19906;-95
2022/02/21 00:23:51;;;;;;;;;;;11.70;99.90;;;;;;4965026;28;19937;-95
2022/02/21 00:26:18;;;;;;;;;;;11.70;99.90;;;;;;4963572;28;20375;-93
2022/02/21 00:28:47;;;;;;;;;;;11.80;99.90;;;;;;4959983;28;20210;-94
2022/02/21 00:31:12;;;;;;;;;;;11.80;99.90;;;;;;4965229;28;19953;-93
2022/02/21 00:33:40;;;;;;;;;;;11.80;99.90;;;;;;4962031;28;19922;-94
2022/02/21 00:36:06;;;;;;;;;;;11.80;99.90;;;;;;4962067;28;19958;-94
2022/02/21 00:38:34;;;;;;;;;;;11.80;99.90;;;;;;4977302;28;19910;-94
2022/02/21 00:41:01;;;;;;;;;;;11.80;99.90;;;;;;4963012;28;19913;-93
2022/02/21 00:43:27;;;;;;;;;;;11.80;99.90;;;;;;4963924;28;19910;-94
2022/02/21 00:45:52;;;;;;;;;;;11.80;99.90;;;;;;4966112;28;19906;-94
2022/02/21 00:48:28;;;;;;;;;;;11.70;99.90;;;;;;4962832;28;19917;-96
2022/02/21 00:50:56;;;;;;;;;;;11.80;99.90;;;;;;4963012;28;19976;-95
2022/02/21 00:53:22;;;;;;;;;;;11.80;99.90;;;;;;4962596;28;19918;-94
2022/02/21 00:55:48;;;;;;;;;;;11.90;99.90;;;;;;4964340;28;19950;-94
2022/02/21 00:58:20;;;;;;;;;;;11.90;99.90;;;;;;4965459;28;19914;-95
2022/02/21 01:00:45;;;;;;;;;;;11.90;99.90;;;;;;4966127;28;19922;-95
2022/02/21 01:03:11;;;;;;;;;;;11.90;99.90;;;;;;4980829;28;19906;-95
2022/02/21 01:05:46;;;;;;;;;;;11.90;99.90;;;;;;4968413;28;19949;-94
2022/02/21 01:08:27;;;;;;;;;;;11.90;99.90;;;;;;4968478;28;19906;-95
2022/02/21 01:11:12;;;;;;;;;;;;;;;;;;;;;
2022/02/21 01:16:52;;;;;;;;;;;11.90;99.90;;;;;;4963505;28;19906;-96
2022/02/21 01:19:17;;;;;;;;;;;11.90;99.90;;;;;;4965783;28;19918;-94
2022/02/21 01:21:43;;;;;;;;;;;11.80;99.90;;;;;;4965833;28;19973;-93
2022/02/21 01:24:34;;;;;;;;;;;;;;;;;;;;;
2022/02/21 01:46:06;;;;;;;;;;;10.60;99.90;;;;;;4809827;29;19921;-93
2022/02/21 01:48:41;;;;;;;;;;;10.60;99.90;;;;;;4791032;29;19917;-94
2022/02/21 01:54:29;;;;;;;;;;;10.60;99.90;;;;;;4829607;29;19909;-94
2022/02/21 01:59:59;;;;;;;;;;;10.40;99.90;;;;;;4850547;29;19972;-94
2022/02/21 02:02:27;;;;;;;;;;;10.40;99.90;;;;;;4849704;29;20114;-93
2022/02/21 02:04:53;;;;;;;;;;;10.40;99.90;;;;;;4850688;29;20216;-93
2022/02/21 02:07:19;;;;;;;;;;;10.40;99.90;;;;;;4849038;29;19986;-93
2022/02/21 02:09:50;;;;;;;;;;;10.40;99.90;;;;;;4876851;28;19962;-93
2022/02/21 02:12:27;;;;;;;;;;;10.30;99.90;;;;;;4967310;28;19926;-94
2022/02/21 02:15:00;;;;;;;;;;;10.30;99.90;;;;;;4966899;28;19907;-95
2022/02/21 02:17:28;;;;;;;;;;;10.30;99.90;;;;;;4960843;28;19906;-94
2022/02/21 02:20:02;;;;;;;;;;;10.30;99.90;;;;;;4968251;28;19945;-96
2022/02/21 02:22:27;;;;;;;;;;;10.30;99.90;;;;;;4968296;28;19906;-93
2022/02/21 02:25:11;;;;;;;;;;;10.30;99.90;;;;;;4967485;28;20178;-94
2022/02/21 02:27:46;;;;;;;;;;;10.30;99.90;;;;;;4958682;28;19906;-93
2022/02/21 02:30:14;;;;;;;;;;;10.40;99.90;;;;;;4964665;28;19969;-94
2022/02/21 02:32:40;;;;;;;;;;;10.40;99.90;;;;;;4978887;28;19929;-92
2022/02/21 02:35:06;;;;;;;;;;;10.40;99.90;;;;;;4965634;28;20210;-93
2022/02/21 02:37:32;;;;;;;;;;;10.50;99.90;;;;;;4966141;28;19913;-93
2022/02/21 02:39:58;;;;;;;;;;;10.50;99.90;;;;;;4971877;28;20254;-93
2022/02/21 02:42:23;;;;;;;;;;;10.50;99.90;;;;;;4968138;28;20017;-93
2022/02/21 02:44:49;;;;;;;;;;;10.60;99.90;;;;;;4964070;28;19902;-96
2022/02/21 02:47:15;;;;;;;;;;;10.60;99.90;;;;;;4974045;28;19982;-93
2022/02/21 02:49:41;;;;;;;;;;;10.60;99.90;;;;;;4985994;28;19917;-92
2022/02/21 02:52:07;;;;;;;;;;;10.60;99.90;;;;;;4949230;29;19942;-92
2022/02/21 02:54:33;;;;;;;;;;;10.60;99.90;;;;;;4978155;28;19936;-93
2022/02/21 02:56:59;;;;;;;;;;;10.60;99.90;;;;;;4960158;28;19906;-91
2022/02/21 02:59:27;;;;;;;;;;;10.60;99.90;;;;;;4963950;29;19914;-92
2022/02/21 03:01:54;;;;;;;;;;;10.60;99.90;;;;;;4981475;28;19906;-92
2022/02/21 03:04:20;;;;;;;;;;;10.50;99.90;;;;;;4968954;28;19914;-93
2022/02/21 03:06:46;;;;;;;;;;;10.40;99.90;;;;;;4979102;28;19969;-93
2022/02/21 03:09:11;;;;;;;;;;;10.40;99.90;;;;;;4964914;28;20005;-91
2022/02/21 03:11:37;;;;;;;;;;;10.40;99.90;;;;;;4960287;28;19959;-92
2022/02/21 03:14:03;;;;;;;;;;;10.40;99.90;;;;;;4946739;29;19969;-92
2022/02/21 03:16:29;;;;;;;;;;;10.40;99.90;;;;;;4967598;28;20237;-90
2022/02/21 03:18:54;;;;;;;;;;;10.30;99.90;;;;;;4959881;28;19911;-90
2022/02/21 03:21:20;;;;;;;;;;;10.30;99.90;;;;;;4945669;29;19982;-91
2022/02/21 03:23:46;;;;;;;;;;;10.30;99.90;;;;;;4960676;29;19918;-91
2022/02/21 03:26:11;;;;;;;;;;;10.30;99.90;;;;;;4963275;29;19910;-90
2022/02/21 03:28:37;;;;;;;;;;;10.20;99.90;;;;;;4954981;28;20190;-91
2022/02/21 03:31:03;;;;;;;;;;;10.10;99.90;;;;;;4973361;28;19922;-91
2022/02/21 03:33:28;;;;;;;;;;;10.20;99.90;;;;;;4962677;29;19962;-91
2022/02/21 03:35:54;;;;;;;;;;;10.10;99.90;;;;;;4962708;29;19907;-90
2022/02/21 03:38:20;;;;;;;;;;;10.10;99.90;;;;;;4961467;29;19907;-90
2022/02/21 03:40:47;;;;;;;;;;;10.00;99.90;;;;;;4963676;28;19938;-91
2022/02/21 03:43:12;;;;;;;;;;;10.00;99.90;;;;;;4962953;29;20102;-90
2022/02/21 03:45:38;;;;;;;;;;;10.00;99.90;;;;;;4964131;29;19906;-90
2022/02/21 03:48:04;;;;;;;;;;;10.00;99.90;;;;;;4944818;29;19907;-90
2022/02/21 03:50:30;;;;;;;;;;;9.90;99.90;;;;;;4945184;29;20328;-91
2022/02/21 03:52:55;;;;;;;;;;;9.90;99.90;;;;;;4944586;29;19911;-90
2022/02/21 03:55:21;;;;;;;;;;;9.90;99.90;;;;;;4950448;29;19907;-90
2022/02/21 03:57:47;;;;;;;;;;;10.00;99.90;;;;;;4963250;29;20194;-91
2022/02/21 04:00:14;;;;;;;;;;;9.90;99.90;;;;;;4963426;28;19990;-91
2022/02/21 04:02:40;;;;;;;;;;;9.90;99.90;;;;;;4947220;28;19966;-90
2022/02/21 04:05:06;;;;;;;;;;;9.90;99.90;;;;;;4959680;28;19919;-91
2022/02/21 04:07:31;;;;;;;;;;;9.90;99.90;;;;;;4944995;29;19954;-96
2022/02/21 04:09:57;;;;;;;;;;;9.90;99.90;;;;;;4961976;28;19954;-91
2022/02/21 04:12:23;;;;;;;;;;;9.90;99.90;;;;;;4962800;28;20228;-90
2022/02/21 04:14:49;;;;;;;;;;;9.90;99.90;;;;;;4963743;28;19986;-92
2022/02/21 04:17:14;;;;;;;;;;;9.90;99.90;;;;;;4969286;28;19906;-91
2022/02/21 04:19:40;;;;;;;;;;;9.90;99.90;;;;;;4962712;28;20244;-91
2022/02/21 04:22:10;;;;;;;;;;;9.90;99.90;;;;;;4971158;28;19917;-91
2022/02/21 04:24:36;;;;;;;;;;;9.90;99.90;;;;;;4982920;28;19953;-91
2022/02/21 04:27:02;;;;;;;;;;;9.90;99.90;;;;;;4982143;28;20103;-91
2022/02/21 04:29:27;;;;;;;;;;;9.80;99.90;;;;;;4964675;28;20249;-93
2022/02/21 04:31:53;;;;;;;;;;;9.80;99.90;;;;;;4985509;28;20249;-91
2022/02/21 04:34:19;;;;;;;;;;;9.80;99.90;;;;;;4954781;28;19912;-91
2022/02/21 04:36:45;;;;;;;;;;;9.70;99.90;;;;;;4966102;28;19907;-91
2022/02/21 04:39:10;;;;;;;;;;;9.70;99.90;;;;;;4966486;28;19907;-90
2022/02/21 04:41:36;;;;;;;;;;;9.70;99.90;;;;;;4966917;28;19911;-90
2022/02/21 04:44:02;;;;;;;;;;;9.70;99.90;;;;;;4978497;28;19918;-91
2022/02/21 04:46:27;;;;;;;;;;;9.70;99.90;;;;;;4985457;28;19946;-91
2022/02/21 04:48:53;;;;;;;;;;;9.70;99.90;;;;;;4985431;28;20195;-91
2022/02/21 04:51:18;;;;;;;;;;;9.70;99.90;;;;;;4984870;28;19981;-91
2022/02/21 04:53:44;;;;;;;;;;;9.70;99.90;;;;;;4970913;28;20190;-91
2022/02/21 04:56:09;;;;;;;;;;;9.80;99.90;;;;;;4968162;28;19906;-90
2022/02/21 04:58:35;;;;;;;;;;;9.70;99.90;;;;;;4950044;29;19929;-91
2022/02/21 05:01:01;;;;;;;;;;;9.70;99.90;;;;;;4966007;28;19907;-90
2022/02/21 05:03:26;;;;;;;;;;;9.60;99.90;;;;;;4966808;28;19906;-91
2022/02/21 05:05:52;;;;;;;;;;;9.60;99.90;;;;;;4965155;28;19914;-90
2022/02/21 05:08:17;;;;;;;;;;;9.60;99.90;;;;;;4949783;29;19907;-90
2022/02/21 05:10:43;;;;;;;;;;;9.70;99.90;;;;;;4964016;28;19918;-92
2022/02/21 05:15:57;;;;;;;;;;;9.70;99.90;;;;;;4958981;28;19910;-91
2022/02/21 05:18:23;;;;;;;;;;;9.70;99.90;;;;;;4971858;28;19920;-91
2022/02/21 05:20:48;;;;;;;;;;;9.60;99.90;;;;;;4967888;28;19910;-91
2022/02/21 05:23:14;;;;;;;;;;;9.70;99.90;;;;;;4968102;28;20437;-91
2022/02/21 05:25:39;;;;;;;;;;;9.60;99.90;;;;;;4949220;29;19903;-91
2022/02/21 05:28:06;;;;;;;;;;;9.60;99.90;;;;;;4957054;28;20566;-91
2022/02/21 05:30:32;;;;;;;;;;;9.70;99.90;;;;;;4953268;29;19910;-92
2022/02/21 05:32:58;;;;;;;;;;;9.70;99.90;;;;;;4966114;28;19922;-91
2022/02/21 05:35:23;;;;;;;;;;;9.60;99.90;;;;;;4968211;28;19996;-91
2022/02/21 05:37:49;;;;;;;;;;;9.70;99.90;;;;;;4957807;29;19974;-91
2022/02/21 05:40:14;;;;;;;;;;;9.60;99.90;;;;;;4955741;29;19911;-91
2022/02/21 05:42:40;;;;;;;;;;;9.60;99.90;;;;;;4957087;28;19901;-91
2022/02/21 05:45:06;;;;;;;;;;;9.60;99.90;;;;;;4954188;28;20013;-93
2022/02/21 05:47:31;;;;;;;;;;;9.60;99.90;;;;;;4962031;29;19914;-92
2022/02/21 05:49:57;;;;;;;;;;;9.60;99.90;;;;;;4963498;29;19953;-91
2022/02/21 05:52:22;;;;;;;;;;;9.50;99.90;;;;;;4965429;29;19912;-91
2022/02/21 05:54:48;;;;;;;;;;;9.50;99.90;;;;;;4963873;28;19917;-90
2022/02/21 05:57:18;;;;;;;;;;;9.50;99.90;;;;;;4947998;29;19913;-95
2022/02/21 05:59:43;;;;;;;;;;;9.50;99.90;;;;;;4946320;29;19981;-91
2022/02/21 06:02:09;;;;;;;;;;;9.50;99.90;;;;;;4961811;28;19906;-92
2022/02/21 06:04:34;;;;;;;;;;;9.40;99.90;;;;;;4958188;28;19929;-91
2022/02/21 06:07:01;;;;;;;;;;;9.40;99.90;;;;;;4963760;29;20253;-90
2022/02/21 06:09:26;;;;;;;;;;;9.50;99.90;;;;;;4966404;28;19914;-94
2022/02/21 06:11:52;;;;;;;;;;;9.50;99.90;;;;;;4964663;28;20258;-91
2022/02/21 06:14:18;;;;;;;;;;;9.50;99.90;;;;;;4963619;28;19906;-91
2022/02/21 06:16:43;;;;;;;;;;;9.50;99.90;;;;;;4962430;29;20199;-93
2022/02/21 06:19:09;;;;;;;;;;;9.50;99.90;;;;;;4963677;29;19906;-91
2022/02/21 06:21:34;;;;;;;;;;;9.40;99.90;;;;;;4963329;29;20076;-92
2022/02/21 06:24:00;;;;;;;;;;;9.40;99.90;;;;;;4947723;29;19925;-92
2022/02/21 06:26:25;;;;;;;;;;;9.40;99.90;;;;;;4951507;29;19938;-92
2022/02/21 06:28:51;;;;;;;;;;;9.40;99.90;;;;;;4964879;28;19949;-92
2022/02/21 06:31:17;;;;;;;;;;;9.40;99.90;;;;;;4957889;29;19915;-94
2022/02/21 06:33:42;;;;;;;;;;;9.50;99.90;;;;;;4936990;29;19917;-94
2022/02/21 06:36:08;;;;;;;;;;;9.60;99.90;;;;;;4965572;28;19937;-92
2022/02/21 06:38:33;;;;;;;;;;;9.60;99.90;;;;;;4949269;29;19911;-93
2022/02/21 06:40:59;;;;;;;;;;;9.70;99.90;;;;;;4952118;29;20291;-93
2022/02/21 06:43:25;;;;;;;;;;;9.70;99.90;;;;;;4942938;29;19989;-93
2022/02/21 06:45:50;;;;;;;;;;;9.70;99.90;;;;;;4966117;28;20311;-93
2022/02/21 06:48:16;;;;;;;;;;;9.80;99.90;;;;;;4953866;29;19914;-94
2022/02/21 06:50:41;;;;;;;;;;;9.70;99.90;;;;;;4947670;28;20048;-93
2022/02/21 06:53:07;;;;;;;;;;;9.70;99.90;;;;;;4952264;28;19973;-92
2022/02/21 06:55:36;;;;;;;;;;;9.70;99.90;;;;;;4955606;28;19911;-92
2022/02/21 06:58:01;;;;;;;;;;;9.70;99.90;;;;;;4956429;28;19917;-94
2022/02/21 07:00:27;;;;;;;;;;;9.80;99.90;;;;;;4939309;29;19911;-93
2022/02/21 07:02:52;;;;;;;;;;;9.80;99.90;;;;;;4950218;28;19966;-92
2022/02/21 07:05:18;;;;;;;;;;;9.80;99.90;;;;;;4961662;28;19918;-93
2022/02/21 07:07:44;;;;;;;;;;;9.80;99.90;;;;;;4951778;29;19914;-91
2022/02/21 07:10:10;;;;;;;;;;;9.80;99.90;;;;;;4953373;28;20014;-93
2022/02/21 07:12:37;;;;;;;;;;;9.80;99.90;;;;;;4953477;29;20331;-93
2022/02/21 07:15:03;;;;;;;;;;;9.70;99.90;;;;;;4954073;29;19910;-93
2022/02/21 07:17:29;;;;;;;;;;;9.80;99.90;;;;;;4952596;29;19910;-93
2022/02/21 07:19:55;;;;;;;;;;;9.80;99.90;;;;;;4953392;29;19917;-93
2022/02/21 07:22:21;;;;;;;;;;;9.70;99.90;;;;;;4952442;29;19919;-92
2022/02/21 07:24:46;;;;;;;;;;;9.70;99.90;;;;;;4944810;29;19919;-92
2022/02/21 07:27:12;;;;;;;;;;;9.80;99.90;;;;;;4976052;28;20398;-91
2022/02/21 07:29:37;;;;;;;;;;;9.80;99.90;;;;;;4956722;29;19945;-92
2022/02/21 07:32:04;;;;;;;;;;;9.80;99.90;;;;;;4945581;29;19970;-93
2022/02/21 07:34:29;;;;;;;;;;;9.80;99.90;;;;;;4942131;29;19950;-93
2022/02/21 07:36:55;;;;;;;;;;;9.80;99.90;;;;;;4945897;29;19926;-93
2022/02/21 07:39:20;;;;;;;;;;;9.80;99.90;;;;;;4951804;29;19934;-93
2022/02/21 07:41:46;;;;;;;;;;;9.90;99.90;;;;;;4958025;28;19911;-93
2022/02/21 07:44:12;;;;;;;;;;;9.80;99.90;;;;;;4950434;29;20357;-93
2022/02/21 07:46:37;;;;;;;;;;;9.90;99.90;;;;;;4949913;28;20002;-93
2022/02/21 07:49:03;;;;;;;;;;;9.90;99.90;;;;;;4950275;28;19926;-92
2022/02/21 07:51:29;;;;;;;;;;;10.00;99.90;;;;;;4933619;29;19911;-93
2022/02/21 07:53:55;;;;;;;;;;;10.10;99.90;;;;;;4956869;28;19914;-93
2022/02/21 07:56:21;;;;;;;;;;;10.10;99.90;;;;;;4958107;28;19918;-93
2022/02/21 07:58:47;;;;;;;;;;;10.10;99.90;;;;;;4952745;29;19910;-93
2022/02/21 08:01:12;;;;;;;;;;;10.20;99.90;;;;;;4968605;28;20488;-92
2022/02/21 08:03:38;;;;;;;;;;;10.30;99.90;;;;;;4947101;29;19942;-93
2022/02/21 08:06:05;;;;;;;;;;;10.40;99.90;;;;;;4954311;28;19911;-93
2022/02/21 08:08:31;;;;;;;;;;;10.40;99.90;;;;;;4953568;28;20352;-93
2022/02/21 08:10:57;;;;;;;;;;;10.40;99.90;;;;;;4954501;28;20000;-93
2022/02/21 08:13:22;;;;;;;;;;;10.50;99.90;;;;;;4956066;28;19917;-93
2022/02/21 08:15:48;;;;;;;;;;;10.50;99.90;;;;;;4953092;28;19934;-92
2022/02/21 08:18:13;;;;;;;;;;;10.60;99.90;;;;;;4959729;28;20399;-92
2022/02/21 08:20:39;;;;;;;;;;;10.60;99.90;;;;;;4959767;28;19911;-91
2022/02/21 08:23:05;;;;;;;;;;;10.70;99.90;;;;;;4952989;28;19918;-92
2022/02/21 08:25:30;;;;;;;;;;;10.70;99.90;;;;;;4962280;28;19929;-92
2022/02/21 08:27:56;;;;;;;;;;;10.70;99.90;;;;;;4955273;29;20061;-92
2022/02/21 08:30:23;;;;;;;;;;;10.70;99.90;;;;;;4943622;29;20042;-93
2022/02/21 08:32:49;;;;;;;;;;;10.70;99.90;;;;;;4955358;29;19919;-92
2022/02/21 08:35:15;;;;;;;;;;;10.70;99.90;;;;;;4968095;29;19911;-92
2022/02/21 08:37:41;;;;;;;;;;;10.70;99.90;;;;;;4974078;28;19918;-91
2022/02/21 08:40:08;;;;;;;;;;;10.70;99.90;;;;;;4946528;29;20307;-92
2022/02/21 08:42:34;;;;;;;;;;;10.70;99.90;;;;;;4960114;28;19910;-92
2022/02/21 08:45:00;;;;;;;;;;;10.60;99.90;;;;;;4953546;29;19919;-93
2022/02/21 08:47:25;;;;;;;;;;;10.70;99.90;;;;;;4952142;28;19921;-92
2022/02/21 08:49:51;;;;;;;;;;;10.70;99.90;;;;;;4950798;29;20296;-93
2022/02/21 08:52:17;;;;;;;;;;;10.70;99.90;;;;;;4952646;28;19911;-93
2022/02/21 08:54:43;;;;;;;;;;;10.70;99.90;;;;;;4954296;29;20013;-92
2022/02/21 08:57:09;;;;;;;;;;;10.70;99.90;;;;;;4952136;28;20002;-93
2022/02/21 08:59:35;;;;;;;;;;;10.90;99.90;;;;;;4957970;29;19917;-93
2022/02/21 09:02:01;;;;;;;;;;;10.90;99.90;;;;;;4945672;29;19911;-93
2022/02/21 09:04:27;;;;;;;;;;;11.00;99.90;;;;;;4973451;28;19918;-93
2022/02/21 09:06:52;;;;;;;;;;;11.00;99.90;;;;;;4955797;29;19918;-93
2022/02/21 09:09:24;;;;;;;;;;;11.10;99.90;;;;;;4955587;29;19994;-93
2022/02/21 09:11:50;;;;;;;;;;;11.10;99.90;;;;;;4946727;29;19922;-92
2022/02/21 09:14:16;;;;;;;;;;;11.10;99.90;;;;;;4953026;28;20364;-93
2022/02/21 09:16:41;;;;;;;;;;;11.10;99.90;;;;;;4952201;28;19966;-93
2022/02/21 09:19:07;;;;;;;;;;;11.20;99.90;;;;;;4952404;28;19957;-92
2022/02/21 09:21:33;;;;;;;;;;;11.30;99.90;;;;;;4953009;28;19918;-93
2022/02/21 09:23:58;;;;;;;;;;;11.20;99.90;;;;;;4970379;28;19915;-93
2022/02/21 09:26:24;;;;;;;;;;;11.30;99.90;;;;;;4938758;29;19958;-92
2022/02/21 09:28:50;;;;;;;;;;;11.40;99.90;;;;;;4952783;28;20379;-92
2022/02/21 09:31:15;;;;;;;;;;;11.50;99.90;;;;;;4951685;28;19990;-92
2022/02/21 09:33:41;;;;;;;;;;;11.60;99.90;;;;;;4952159;28;19911;-92
2022/02/21 09:36:06;;;;;;;;;;;11.70;99.90;;;;;;4969120;28;20013;-94
2022/02/21 09:38:32;;;;;;;;;;;11.90;99.90;;;;;;4948269;29;19917;-92
2022/02/21 09:40:58;;;;;;;;;;;11.80;99.90;;;;;;4954007;29;20394;-92
2022/02/21 09:43:26;;;;;;;;;;;11.80;99.90;;;;;;4956378;29;19911;-92
2022/02/21 09:46:10;;;;;;;;;;;11.70;99.90;;;;;;4941841;29;19918;-93
2022/02/21 09:48:37;;;;;;;;;;;11.60;99.90;;;;;;4954159;28;20009;-93
2022/02/21 09:51:03;;;;;;;;;;;11.30;99.90;;;;;;4952154;28;19911;-93
2022/02/21 09:53:31;;;;;;;;;;;11.30;99.90;;;;;;4952451;28;20328;-93
2022/02/21 09:55:57;;;;;;;;;;;11.20;99.90;;;;;;4964757;28;20280;-93
2022/02/21 09:58:23;;;;;;;;;;;11.20;99.90;;;;;;4937151;29;19915;-92
2022/02/21 10:00:49;;;;;;;;;;;11.30;99.90;;;;;;4955556;28;19910;-92
2022/02/21 10:03:38;;;;;;;;;;;11.50;99.90;;;;;;4951367;29;19910;-92
2022/02/21 10:06:13;;;;;;;;;;;11.70;99.90;;;;;;4928728;29;19923;-93
2022/02/21 10:08:49;;;;;;;;;;;11.70;99.90;;;;;;4964404;28;20249;-92
2022/02/21 10:11:21;;;;;;;;;;;11.70;99.90;;;;;;4943596;28;20012;-93
2022/02/21 10:13:57;;;;;;;;;;;11.80;99.90;;;;;;4952948;28;19911;-92
2022/02/21 10:16:23;;;;;;;;;;;11.80;99.90;;;;;;4952368;28;19911;-92
2022/02/21 10:18:52;;;;;;;;;;;11.80;99.90;;;;;;4955797;28;20388;-92
2022/02/21 10:21:18;;;;;;;;;;;11.90;99.90;;;;;;4955287;29;19933;-91
2022/02/21 10:23:44;;;;;;;;;;;11.90;99.90;;;;;;4951671;29;20013;-92
2022/02/21 10:26:09;;;;;;;;;;;11.90;99.90;;;;;;4964535;28;19926;-92
2022/02/21 10:28:37;;;;;;;;;;;11.90;99.90;;;;;;4956104;28;19958;-92
2022/02/21 10:31:17;;;;;;;;;;;11.90;99.90;;;;;;4938053;29;19911;-93
2022/02/21 10:33:48;;;;;;;;;;;11.90;99.90;;;;;;4950230;29;19911;-93
2022/02/21 10:36:32;;;;;;;;;;;11.90;99.90;;;;;;4936043;29;19910;-93
2022/02/21 10:38:57;;;;;;;;;;;11.90;99.90;;;;;;4956810;28;20276;-93
2022/02/21 10:41:39;;;;;;;;;;;11.90;99.90;;;;;;4962052;28;19911;-92
2022/02/21 10:44:31;;;;;;;;;;;12.00;99.90;;;;;;4952903;29;19919;-92
2022/02/21 10:47:30;;;;;;;;;;;12.00;99.90;;;;;;4951198;29;19910;-92
2022/02/21 10:49:58;;;;;;;;;;;12.10;99.90;;;;;;4941664;29;19914;-93
2022/02/21 10:52:25;;;;;;;;;;;12.10;99.90;;;;;;4952815;29;19915;-93
2022/02/21 10:54:52;;;;;;;;;;;12.10;99.90;;;;;;4951234;29;20300;-92
2022/02/21 10:57:18;;;;;;;;;;;12.00;99.90;;;;;;4949798;28;19914;-93
2022/02/21 10:59:44;;;;;;;;;;;12.10;99.90;;;;;;4948677;29;19910;-92
2022/02/21 11:02:14;;;;;;;;;;;12.20;99.90;;;;;;4945313;29;19911;-92
2022/02/21 11:04:41;;;;;;;;;;;12.30;99.90;;;;;;4949629;28;19919;-92
2022/02/21 11:07:07;;;;;;;;;;;12.40;99.90;;;;;;4963087;28;19919;-92
2022/02/21 11:09:33;;;;;;;;;;;12.70;99.90;;;;;;4953404;28;19957;-93
2022/02/21 11:11:59;;;;;;;;;;;12.80;99.90;;;;;;4949345;28;19927;-92
2022/02/21 11:14:28;;;;;;;;;;;12.80;99.90;;;;;;4949512;28;19911;-92
2022/02/21 11:16:55;;;;;;;;;;;12.60;99.90;;;;;;4958203;28;19895;-91
2022/02/21 11:19:20;;;;;;;;;;;12.40;99.90;;;;;;4966667;28;19911;-92
2022/02/21 11:21:47;;;;;;;;;;;12.30;99.90;;;;;;4934189;29;19941;-91
2022/02/21 11:24:14;;;;;;;;;;;12.30;99.90;;;;;;4950249;28;19974;-91
2022/02/21 11:26:58;;;;;;;;;;;12.30;99.90;;;;;;4949402;28;20460;-91
2022/02/21 11:29:34;;;;;;;;;;;12.30;99.90;;;;;;4954776;28;19998;-90
2022/02/21 11:31:59;;;;;;;;;;;12.50;99.90;;;;;;4949725;29;20371;-91
2022/02/21 11:34:25;;;;;;;;;;;12.70;99.90;;;;;;4952440;28;19968;-91
2022/02/21 11:36:57;;;;;;;;;;;12.60;99.90;;;;;;4951146;29;20070;-92
2022/02/21 11:39:28;;;;;;;;;;;12.60;99.90;;;;;;4950846;29;20057;-91
2022/02/21 11:42:07;;;;;;;;;;;12.50;99.90;;;;;;4937677;28;19915;-91
2022/02/21 11:44:42;;;;;;;;;;;12.60;99.90;;;;;;4952762;28;19997;-91
2022/02/21 11:47:08;;;;;;;;;;;12.40;99.90;;;;;;4951792;29;20265;-91
2022/02/21 11:49:35;;;;;;;;;;;12.30;99.90;;;;;;4950892;29;20051;-91
2022/02/21 11:52:19;;;;;;;;;;;12.30;99.90;;;;;;4951954;28;19993;-90
2022/02/21 11:54:46;;;;;;;;;;;12.30;99.90;;;;;;4950380;29;19899;-91
2022/02/21 11:57:12;;;;;;;;;;;12.20;99.90;;;;;;4948114;28;20482;-91
2022/02/21 11:59:38;;;;;;;;;;;12.20;99.90;;;;;;4932544;29;19942;-91
2022/02/21 12:02:06;;;;;;;;;;;12.20;99.90;;;;;;4948624;28;19911;-91
2022/02/21 12:04:56;;;;;;;;;;;12.20;99.90;;;;;;4948403;28;19918;-91
2022/02/21 12:07:36;;;;;;;;;;;12.30;99.90;;;;;;4963366;28;19918;-92
2022/02/21 12:10:24;;;;;;;;;;;12.40;99.90;;;;;;4953637;28;19981;-90
2022/02/21 12:12:54;;;;;;;;;;;12.40;99.90;;;;;;4954235;28;19914;-91
2022/02/21 12:15:24;;;;;;;;;;;12.30;99.90;;;;;;4974232;28;19914;-91
2022/02/21 12:18:19;;;;;;;;;;;12.30;99.90;;;;;;4964851;28;19945;-91
2022/02/21 12:20:45;;;;;;;;;;;12.30;99.90;;;;;;4950438;28;19938;-90
2022/02/21 12:23:11;;;;;;;;;;;12.40;99.90;;;;;;4943887;29;19965;-91
2022/02/21 12:25:40;;;;;;;;;;;12.60;99.90;;;;;;4936109;28;19923;-91
2022/02/21 12:28:08;;;;;;;;;;;12.60;99.90;;;;;;4964106;28;19910;-90
2022/02/21 12:30:39;;;;;;;;;;;12.70;99.90;;;;;;4955433;28;19910;-92
2022/02/21 12:33:06;;;;;;;;;;;12.70;99.90;;;;;;4965978;28;19914;-91
2022/02/21 12:35:44;;;;;;;;;;;12.70;99.90;;;;;;4969653;28;20398;-91
2022/02/21 12:38:10;;;;;;;;;;;12.80;99.90;;;;;;4936343;29;20375;-91
2022/02/21 12:40:36;;;;;;;;;;;12.90;99.90;;;;;;4953793;28;19921;-91
2022/02/21 12:43:01;;;;;;;;;;;13.20;99.90;;;;;;4957954;28;20022;-91
2022/02/21 12:45:27;;;;;;;;;;;13.00;99.90;;;;;;4953756;28;19933;-90
2022/02/21 12:47:56;;;;;;;;;;;13.10;99.90;;;;;;4941420;28;20515;-90
2022/02/21 12:50:24;;;;;;;;;;;13.10;99.90;;;;;;4960177;28;19914;-90
2022/02/21 12:52:57;;;;;;;;;;;13.10;99.90;;;;;;4971918;28;19910;-90
2022/02/21 12:55:22;;;;;;;;;;;13.00;99.90;;;;;;4957290;28;19911;-90
2022/02/21 12:57:48;;;;;;;;;;;13.00;99.90;;;;;;4951474;28;19910;-90
2022/02/21 13:00:14;;;;;;;;;;;12.90;99.90;;;;;;4957124;28;19988;-90
2022/02/21 13:02:39;;;;;;;;;;;13.00;99.90;;;;;;4956912;28;20382;-90
2022/02/21 13:05:05;;;;;;;;;;;13.30;99.90;;;;;;4957388;28;19925;-90
2022/02/21 13:07:31;;;;;;;;;;;13.20;99.90;;;;;;4957242;28;20514;-90
2022/02/21 13:10:04;;;;;;;;;;;13.20;99.90;;;;;;4957569;28;20398;-89
2022/02/21 13:12:29;;;;;;;;;;;13.10;99.90;;;;;;4952927;29;19964;-91
2022/02/21 13:14:57;;;;;;;;;;;13.10;99.90;;;;;;4956320;28;19915;-90
2022/02/21 13:17:22;;;;;;;;;;;13.10;99.90;;;;;;4972106;28;19914;-90
2022/02/21 13:19:52;;;;;;;;;;;13.10;99.90;;;;;;4956918;28;19993;-90
2022/02/21 13:22:28;;;;;;;;;;;13.10;99.90;;;;;;4974164;28;19981;-89
2022/02/21 13:24:58;;;;;;;;;;;13.00;99.90;;;;;;4944136;28;19918;-90
2022/02/21 13:27:29;;;;;;;;;;;13.20;99.90;;;;;;4956701;28;20146;-90
2022/02/21 13:29:56;;;;;;;;;;;13.20;99.90;;;;;;4951692;29;20004;-90
2022/02/21 13:32:30;;;;;;;;;;;13.20;99.90;;;;;;4954253;28;20066;-89
2022/02/21 13:35:02;;;;;;;;;;;13.20;99.90;;;;;;4950925;29;20368;-89
2022/02/21 13:37:31;;;;;;;;;;;13.10;99.90;;;;;;4944169;28;19910;-89
2022/02/21 13:39:57;;;;;;;;;;;13.20;99.90;;;;;;4943938;28;20144;-90
2022/02/21 13:42:31;;;;;;;;;;;13.10;99.90;;;;;;4954000;28;19990;-90
2022/02/21 13:45:15;;;;;;;;;;;13.10;99.90;;;;;;4973620;28;19972;-89
2022/02/21 13:47:41;;;;;;;;;;;13.10;99.90;;;;;;4969258;28;19911;-89
2022/02/21 13:50:07;;;;;;;;;;;13.00;99.90;;;;;;4953628;28;19957;-90
2022/02/21 13:52:49;;;;;;;;;;;12.90;99.90;;;;;;4954008;28;19910;-89
2022/02/21 13:55:25;;;;;;;;;;;12.90;99.90;;;;;;4955685;28;19910;-89
2022/02/21 13:57:57;;;;;;;;;;;12.80;99.90;;;;;;4954327;28;19957;-90
2022/02/21 14:00:41;;;;;;;;;;;12.80;99.90;;;;;;4954986;28;19911;-90
2022/02/21 14:03:07;;;;;;;;;;;13.00;99.90;;;;;;4954472;28;19911;-89
2022/02/21 14:05:33;;;;;;;;;;;13.00;99.90;;;;;;4955457;28;19925;-89
2022/02/21 14:07:59;;;;;;;;;;;13.10;99.90;;;;;;4961235;28;19911;-89
2022/02/21 14:10:24;;;;;;;;;;;13.10;99.90;;;;;;4954675;28;19926;-89
2022/02/21 14:12:56;;;;;;;;;;;13.10;99.90;;;;;;4971360;28;19911;-89
2022/02/21 14:15:22;;;;;;;;;;;12.90;99.90;;;;;;4955483;28;20017;-91
2022/02/21 14:17:48;;;;;;;;;;;13.00;99.90;;;;;;4955368;28;20294;-89
2022/02/21 14:20:13;;;;;;;;;;;13.00;99.90;;;;;;4973497;28;19910;-88
2022/02/21 14:22:39;;;;;;;;;;;12.80;99.90;;;;;;4973602;28;19910;-89
2022/02/21 14:25:05;;;;;;;;;;;12.80;99.90;;;;;;4964934;28;20287;-89
2022/02/21 14:27:30;;;;;;;;;;;12.80;99.90;;;;;;4954431;28;19910;-89
2022/02/21 14:29:56;;;;;;;;;;;12.90;99.90;;;;;;4965650;28;19914;-89
2022/02/21 14:32:22;;;;;;;;;;;12.90;99.90;;;;;;4955189;28;20033;-88
2022/02/21 14:34:48;;;;;;;;;;;13.00;99.90;;;;;;4955443;28;20008;-89
2022/02/21 14:37:14;;;;;;;;;;;13.10;99.90;;;;;;4955580;28;20294;-89
2022/02/21 14:39:40;;;;;;;;;;;13.00;99.90;;;;;;4972529;28;19910;-89
2022/02/21 14:42:06;;;;;;;;;;;13.00;99.90;;;;;;4938428;29;19921;-89
2022/02/21 14:44:31;;;;;;;;;;;13.10;99.90;;;;;;4953104;28;19973;-90
2022/02/21 14:46:58;;;;;;;;;;;13.20;99.90;;;;;;4952965;28;20002;-89
2022/02/21 14:49:23;;;;;;;;;;;13.00;99.90;;;;;;4953866;28;19958;-90
2022/02/21 14:51:49;;;;;;;;;;;12.90;99.90;;;;;;4954081;28;20442;-89
2022/02/21 14:54:15;;;;;;;;;;;12.90;99.90;;;;;;4952518;28;19911;-90
2022/02/21 14:56:40;;;;;;;;;;;12.90;99.90;;;;;;4953144;28;19910;-89
2022/02/21 14:59:06;;;;;;;;;;;12.90;99.90;;;;;;4960742;28;19977;-89
2022/02/21 15:01:32;;;;;;;;;;;12.90;99.90;;;;;;4972290;28;19917;-89